This is the latest recevied weather packets stored in our database for station/object IZ2WMD-13. If no packets are shown the sender has not sent any weather packets the latest 10 day(s).
| Time | Temp. | Humidity | Pressure | Rain* | Wind** | Luminosity | Snow |
|---|---|---|---|---|---|---|---|
| 1777723405 | 26.11° C | 27% | 1021.5 hPa | - | - | - | - |
| 1777722201 | 26.11° C | 27% | 1021.9 hPa | - | - | - | - |
| 1777720996 | 26.11° C | 27% | 1022.2 hPa | - | - | - | - |
| 1777719791 | 25° C | 28% | 1022.6 hPa | - | - | - | - |
| 1777718587 | 25.56° C | 27% | 1022.9 hPa | - | - | - | - |
| 1777717382 | 24.44° C | 30% | 1023.3 hPa | - | - | - | - |
| 1777716177 | 24.44° C | 31% | 1023.5 hPa | - | - | - | - |
| 1777714972 | 24.44° C | 32% | 1023.9 hPa | - | - | - | - |
| 1777713767 | 23.33° C | 33% | 1024.1 hPa | - | - | - | - |
| 1777711358 | 21.11° C | 34% | 1024.6 hPa | - | - | - | - |
| 1777710153 | 21.11° C | 36% | 1024.7 hPa | - | - | - | - |
| 1777708948 | 20.56° C | 39% | 1024.9 hPa | - | - | - | - |
| 1777707743 | 18.89° C | 43% | 1025.1 hPa | - | - | - | - |
| 1777706538 | 17.78° C | 48% | 1025.3 hPa | - | - | - | - |
| 1777705334 | 17.22° C | 49% | 1025.4 hPa | - | - | - | - |
| 1777704129 | 16.67° C | 51% | 1025.4 hPa | - | - | - | - |
| 1777702924 | 15° C | 56% | 1025.6 hPa | - | - | - | - |
| 1777701719 | 13.89° C | 59% | 1025.7 hPa | - | - | - | - |
| 1777700514 | 12.22° C | 62% | 1025.7 hPa | - | - | - | - |
| 1777699309 | 11.11° C | 66% | 1025.8 hPa | - | - | - | - |
| 1777698104 | 9.44° C | 69% | 1025.9 hPa | - | - | - | - |
| 1777696900 | 8.33° C | 73% | 1026 hPa | - | - | - | - |
| 1777694490 | 7.78° C | 77% | 1026.1 hPa | - | - | - | - |
| 1777692080 | 7.22° C | 81% | 1026.1 hPa | - | - | - | - |
| 1777690875 | 7.22° C | 83% | 1026.1 hPa | - | - | - | - |
* Rain since midnight (hover to see other rain measurements)
** Current wind speed in m/s (hover to see current wind gust speed)